createdAt,value
2018-09-14T00:00:05.655Z,5.47
2018-09-14T00:02:33.520Z,5.07
2018-09-14T00:05:01.202Z,4.97
2018-09-14T00:07:28.885Z,5.47
2018-09-14T00:09:56.612Z,5.70
2018-09-14T00:12:24.298Z,7.50
2018-09-14T00:14:51.887Z,7.43
2018-09-14T00:17:19.636Z,7.37
2018-09-14T00:19:47.415Z,7.58
2018-09-14T00:22:14.998Z,8.27
2018-09-14T00:24:42.630Z,7.70
2018-09-14T00:27:10.525Z,8.23
2018-09-14T00:32:05.497Z,6.10
2018-09-14T00:34:33.197Z,6.37
2018-09-14T00:37:00.859Z,7.97
2018-09-14T00:39:28.924Z,7.17
2018-09-14T00:41:56.714Z,6.83
2018-09-14T00:44:24.492Z,5.97
2018-09-14T00:46:52.054Z,7.78
2018-09-14T00:49:19.860Z,5.80
2018-09-14T00:56:42.196Z,7.53
2018-09-14T00:59:09.882Z,9.60
2018-09-14T01:01:37.647Z,11.90
2018-09-14T01:04:05.335Z,9.78
2018-09-14T01:06:33.020Z,12.93
2018-09-14T01:09:00.839Z,11.90
2018-09-14T01:11:28.567Z,11.60
2018-09-14T01:14:02.590Z,10.33
2018-09-14T01:16:30.059Z,8.15
2018-09-14T01:18:57.898Z,9.95
2018-09-14T01:21:25.570Z,7.30
2018-09-14T01:23:53.323Z,6.80
2018-09-14T01:26:21.035Z,6.93
2018-09-14T01:28:48.790Z,6.77
2018-09-14T01:31:16.580Z,6.73
2018-09-14T01:33:44.055Z,6.83
2018-09-14T01:36:11.864Z,7.63
2018-09-14T01:38:40.302Z,7.80
2018-09-14T01:41:08.184Z,8.87
2018-09-14T01:43:35.971Z,10.63
2018-09-14T01:46:03.815Z,10.30
2018-09-14T01:48:31.574Z,11.45
2018-09-14T01:50:59.324Z,10.60
2018-09-14T01:55:54.567Z,9.93
2018-09-14T01:58:22.221Z,10.57
2018-09-14T02:00:49.726Z,10.47
2018-09-14T02:03:17.577Z,8.53
2018-09-14T02:05:45.121Z,7.30
2018-09-14T02:08:12.963Z,8.50
2018-09-14T02:13:07.718Z,7.23
2018-09-14T02:15:35.639Z,7.93
2018-09-14T02:18:03.579Z,7.13
2018-09-14T02:20:31.071Z,8.13
2018-09-14T02:22:58.731Z,9.30
2018-09-14T02:25:26.483Z,9.45
2018-09-14T02:27:54.282Z,10.97
2018-09-14T02:30:21.859Z,10.95
2018-09-14T02:32:49.583Z,12.97
2018-09-14T02:35:17.295Z,11.17
2018-09-14T02:37:44.903Z,12.07
2018-09-14T02:40:12.768Z,11.57
2018-09-14T02:42:40.494Z,12.17
2018-09-14T02:45:08.214Z,9.37
2018-09-14T02:49:16.728Z,12.45
2018-09-14T02:51:44.458Z,10.47
2018-09-14T02:54:12.043Z,12.77
2018-09-14T02:56:39.823Z,12.17
2018-09-14T02:59:07.579Z,8.63
2018-09-14T03:01:35.603Z,9.23
2018-09-14T03:04:03.403Z,9.03
2018-09-14T03:06:31.222Z,8.10
2018-09-14T03:08:59.022Z,7.80
2018-09-14T03:11:26.739Z,7.47
2018-09-14T03:16:21.575Z,6.80
2018-09-14T03:18:49.340Z,8.03
2018-09-14T03:23:44.667Z,11.70
2018-09-14T03:26:12.586Z,10.93
2018-09-14T03:28:40.882Z,14.07
2018-09-14T03:31:08.567Z,12.77
2018-09-14T03:36:03.311Z,14.78
2018-09-14T03:38:30.938Z,12.07
2018-09-14T03:40:58.619Z,12.05
2018-09-14T03:43:26.409Z,8.93
2018-09-14T03:45:54.397Z,8.27
2018-09-14T03:48:22.003Z,9.50
2018-09-14T03:50:49.722Z,7.83
2018-09-14T03:53:17.454Z,8.47
2018-09-14T03:55:45.068Z,8.10
2018-09-14T03:58:12.735Z,7.57
2018-09-14T04:03:19.834Z,9.60
2018-09-14T04:05:47.559Z,11.60
2018-09-14T04:08:15.291Z,11.40
2018-09-14T04:10:42.871Z,12.77
2018-09-14T04:13:11.002Z,12.00
2018-09-14T04:15:38.714Z,12.53
2018-09-14T04:18:06.478Z,12.47
2018-09-14T04:22:41.995Z,13.03
2018-09-14T04:25:09.650Z,11.20
2018-09-14T04:27:37.402Z,11.80
2018-09-14T04:30:05.055Z,9.27
2018-09-14T04:32:32.914Z,8.13
2018-09-14T04:35:00.591Z,8.40
2018-09-14T04:37:28.055Z,8.67
2018-09-14T04:39:55.697Z,8.10
2018-09-14T04:42:23.403Z,8.10
2018-09-14T04:44:51.003Z,8.35
2018-09-14T04:47:18.819Z,7.93
2018-09-14T04:52:13.567Z,8.40
2018-09-14T04:54:41.390Z,9.95
2018-09-14T04:57:08.953Z,11.47
2018-09-14T04:59:36.994Z,12.67
2018-09-14T05:04:31.734Z,14.20
2018-09-14T05:06:59.465Z,14.57
2018-09-14T05:09:27.054Z,16.13
2018-09-14T05:11:54.807Z,14.50
2018-09-14T05:14:22.571Z,11.40
2018-09-14T05:16:50.154Z,11.17
2018-09-14T05:19:17.851Z,10.83
2018-09-14T05:21:45.539Z,9.63
2018-09-14T05:26:56.846Z,9.78
2018-09-14T05:29:24.571Z,8.97
2018-09-14T05:31:52.289Z,10.97
2018-09-14T05:34:19.953Z,11.50
2018-09-14T05:39:14.906Z,16.77
2018-09-14T05:41:42.638Z,14.77
2018-09-14T05:44:10.959Z,33.97
2018-09-14T05:46:38.585Z,39.77
2018-09-14T05:49:06.287Z,41.53
2018-09-14T05:54:01.295Z,39.60
2018-09-14T05:58:56.006Z,47.03
2018-09-14T06:03:52.920Z,41.93
2018-09-14T06:06:20.651Z,45.57
2018-09-14T06:08:48.488Z,40.78
2018-09-14T06:11:16.018Z,48.07
2018-09-14T06:13:43.875Z,43.27
2018-09-14T06:16:11.575Z,42.90
2018-09-14T06:18:39.059Z,44.10
2018-09-14T06:21:06.350Z,48.58
2018-09-14T06:23:33.955Z,48.97
2018-09-14T06:26:01.839Z,47.93
2018-09-14T06:28:29.578Z,47.63
2018-09-14T06:30:57.379Z,36.67
2018-09-14T06:33:24.954Z,41.33
2018-09-14T06:35:52.573Z,49.93
2018-09-14T06:38:20.386Z,42.45
2018-09-14T06:40:48.354Z,45.63
2018-09-14T06:43:15.915Z,42.67
2018-09-14T06:45:43.938Z,48.43
2018-09-14T06:48:15.519Z,48.48
2018-09-14T06:50:43.007Z,41.60
2018-09-14T06:53:10.926Z,51.68
2018-09-14T06:55:38.559Z,50.77
2018-09-14T06:58:06.290Z,47.57
2018-09-14T07:00:33.970Z,49.63
2018-09-14T07:03:01.579Z,45.63
2018-09-14T07:05:29.003Z,48.33
2018-09-14T07:07:56.826Z,52.03
2018-09-14T07:10:24.560Z,47.20
2018-09-14T07:12:52.310Z,49.27
2018-09-14T07:15:19.856Z,47.30
2018-09-14T07:17:47.965Z,48.43
2018-09-14T07:22:42.814Z,50.80
2018-09-14T07:25:10.531Z,49.73
2018-09-14T07:27:38.375Z,48.93
2018-09-14T07:30:06.020Z,52.43
2018-09-14T07:32:33.659Z,52.53
2018-09-14T07:35:01.379Z,48.27
2018-09-14T07:37:28.958Z,45.53
2018-09-14T07:39:57.218Z,48.38
2018-09-14T07:42:25.338Z,55.97
2018-09-14T07:44:52.898Z,46.00
2018-09-14T07:47:20.802Z,51.80
2018-09-14T07:49:48.529Z,55.00
2018-09-14T07:52:16.262Z,43.45
2018-09-14T07:54:43.866Z,45.40
2018-09-14T07:57:11.678Z,49.23
2018-09-14T07:59:39.295Z,47.57
2018-09-14T08:02:06.882Z,39.92
2018-09-14T08:04:34.914Z,39.40
2018-09-14T08:07:02.570Z,42.53
2018-09-14T08:09:30.067Z,43.40
2018-09-14T08:11:57.803Z,46.85
2018-09-14T08:14:25.464Z,43.97
2018-09-14T08:16:53.014Z,43.35
2018-09-14T08:19:20.723Z,44.87
2018-09-14T08:21:48.545Z,42.47
2018-09-14T08:24:16.050Z,43.17
2018-09-14T08:26:43.938Z,44.30
2018-09-14T08:29:11.811Z,38.83
2018-09-14T08:31:39.532Z,46.57
2018-09-14T08:34:07.296Z,41.40
2018-09-14T08:36:35.367Z,45.48
2018-09-14T08:39:03.994Z,35.80
2018-09-14T08:41:31.669Z,28.42
2018-09-14T08:43:59.562Z,42.73
2018-09-14T08:46:27.431Z,44.40
2018-09-14T08:48:55.219Z,43.47
2018-09-14T08:51:23.042Z,42.38
2018-09-14T08:53:50.744Z,43.97
2018-09-14T08:56:18.541Z,45.93
2018-09-14T08:58:46.510Z,48.13
2018-09-14T09:01:14.180Z,45.20
2018-09-14T09:03:41.962Z,42.17
2018-09-14T09:06:09.634Z,46.48
2018-09-14T09:08:37.459Z,44.07
2018-09-14T09:13:32.306Z,47.10
2018-09-14T09:15:59.887Z,48.77
2018-09-14T09:18:27.666Z,43.73
2018-09-14T09:20:55.298Z,47.33
2018-09-14T09:23:22.910Z,46.57
2018-09-14T09:25:50.617Z,47.23
2018-09-14T09:28:18.187Z,46.35
2018-09-14T09:30:45.863Z,39.58
2018-09-14T09:33:13.602Z,43.77
2018-09-14T09:35:41.304Z,41.77
2018-09-14T09:38:09.300Z,44.17
2018-09-14T09:40:36.867Z,47.20
2018-09-14T09:43:04.824Z,42.33
2018-09-14T09:45:32.551Z,46.30
2018-09-14T09:48:00.355Z,45.27
2018-09-14T09:50:27.959Z,43.27
2018-09-14T09:55:22.790Z,42.03
2018-09-14T09:57:50.535Z,43.90
2018-09-14T10:00:24.174Z,40.10
2018-09-14T10:02:57.639Z,39.00
2018-09-14T10:05:31.320Z,45.83
2018-09-14T10:07:58.906Z,38.50
2018-09-14T10:10:26.580Z,40.50
2018-09-14T10:12:54.230Z,44.93
2018-09-14T10:15:21.771Z,41.37
2018-09-14T10:17:49.527Z,39.48
2018-09-14T10:20:17.303Z,40.23
2018-09-14T10:22:45.027Z,40.33
2018-09-14T10:27:39.874Z,36.63
2018-09-14T10:30:07.644Z,42.20
2018-09-14T10:32:35.575Z,42.97
2018-09-14T10:35:03.252Z,43.17
2018-09-14T10:37:30.881Z,45.13
2018-09-14T10:39:58.670Z,39.03
2018-09-14T10:45:13.014Z,43.85
2018-09-14T10:47:40.706Z,44.73
2018-09-14T10:50:08.567Z,47.07
2018-09-14T10:52:36.167Z,41.13
2018-09-14T10:55:03.814Z,42.63
2018-09-14T10:57:31.518Z,42.70
2018-09-14T11:02:26.439Z,37.67
2018-09-14T11:04:54.002Z,43.17
2018-09-14T11:07:21.870Z,40.83
2018-09-14T11:09:49.610Z,42.50
2018-09-14T11:12:17.415Z,45.47
2018-09-14T11:14:45.214Z,44.47
2018-09-14T11:17:12.778Z,38.55
2018-09-14T11:19:40.487Z,40.73
2018-09-14T11:22:08.011Z,38.20
2018-09-14T11:27:03.000Z,31.63
2018-09-14T11:29:30.649Z,33.42
2018-09-14T11:31:58.478Z,35.57
2018-09-14T11:34:26.527Z,31.57
2018-09-14T11:36:54.239Z,35.90
2018-09-14T11:41:48.947Z,30.60
2018-09-14T11:44:16.579Z,32.15
2018-09-14T11:46:44.347Z,30.57
2018-09-14T11:49:12.003Z,30.73
2018-09-14T11:54:07.484Z,26.33
2018-09-14T11:56:35.958Z,23.70
2018-09-14T11:59:04.350Z,31.03
2018-09-14T12:01:32.013Z,26.33
2018-09-14T12:03:59.971Z,27.97
2018-09-14T12:08:54.838Z,26.53
2018-09-14T12:11:22.672Z,27.37
2018-09-14T12:13:50.719Z,23.97
2018-09-14T12:16:18.135Z,26.87
2018-09-14T12:18:45.846Z,26.67
2018-09-14T12:26:07.998Z,22.87
2018-09-14T12:28:35.839Z,19.55
2018-09-14T12:31:03.603Z,20.07
2018-09-14T12:33:31.463Z,22.60
2018-09-14T12:35:59.019Z,27.77
2018-09-14T12:38:26.744Z,23.77
2018-09-14T12:40:54.415Z,21.07
2018-09-14T12:43:22.063Z,17.87
2018-09-14T12:45:49.951Z,25.03
2018-09-14T12:48:17.603Z,22.73
2018-09-14T12:50:45.379Z,17.43
2018-09-14T12:55:40.010Z,22.07
2018-09-14T13:03:01.847Z,20.40
2018-09-14T13:05:29.522Z,14.40
2018-09-14T13:07:57.354Z,18.10
2018-09-14T13:10:25.579Z,14.83
2018-09-14T13:12:53.391Z,13.75
2018-09-14T13:15:20.921Z,15.73
2018-09-14T13:17:48.570Z,19.67
2018-09-14T13:20:16.207Z,16.75
2018-09-14T13:22:43.826Z,13.70
2018-09-14T13:25:11.588Z,14.70
2018-09-14T13:30:06.975Z,14.43
2018-09-14T13:35:01.784Z,14.97
2018-09-14T13:37:29.519Z,15.13
2018-09-14T13:39:57.040Z,13.70
2018-09-14T13:42:24.799Z,12.78
2018-09-14T13:44:52.532Z,14.93
2018-09-14T13:47:20.063Z,13.87
2018-09-14T13:49:47.804Z,12.47
2018-09-14T13:52:15.491Z,17.65
2018-09-14T13:58:39.594Z,13.55
2018-09-14T14:01:07.076Z,13.55
2018-09-14T14:03:34.792Z,11.57
2018-09-14T14:06:02.887Z,11.03
2018-09-14T14:08:30.579Z,14.03
2018-09-14T14:10:58.234Z,11.70
2018-09-14T14:13:25.774Z,13.40
2018-09-14T14:15:53.491Z,11.63
2018-09-14T14:18:21.007Z,11.85
2018-09-14T14:20:48.616Z,10.63
2018-09-14T14:23:16.425Z,12.10
2018-09-14T14:28:11.302Z,11.73
2018-09-14T14:30:39.503Z,11.27
2018-09-14T14:33:07.607Z,10.37
2018-09-14T14:35:35.429Z,12.53
2018-09-14T14:38:03.217Z,11.37
2018-09-14T14:42:57.943Z,13.10
2018-09-14T14:45:25.661Z,12.03
2018-09-14T14:47:53.298Z,11.90
2018-09-14T14:50:21.035Z,11.47
2018-09-14T14:53:05.804Z,16.50
2018-09-14T14:55:33.545Z,13.93
2018-09-14T14:58:01.056Z,15.10
2018-09-14T15:02:55.990Z,25.93
2018-09-14T15:05:23.599Z,23.80
2018-09-14T15:07:51.298Z,20.80
2018-09-14T15:10:18.974Z,22.70
2018-09-14T15:15:14.019Z,24.17
2018-09-14T15:17:41.796Z,21.80
2018-09-14T15:20:09.523Z,22.60
2018-09-14T15:22:37.201Z,19.62
2018-09-14T15:25:04.992Z,18.70
2018-09-14T15:27:32.738Z,19.10
2018-09-14T15:30:00.423Z,23.00
2018-09-14T15:32:28.043Z,21.00
2018-09-14T15:34:55.743Z,20.83
2018-09-14T15:37:23.810Z,19.90
2018-09-14T15:39:51.503Z,14.53
2018-09-14T15:42:19.067Z,21.65
2018-09-14T15:44:46.720Z,23.22
2018-09-14T15:47:14.456Z,19.30
2018-09-14T15:49:41.987Z,18.67
2018-09-14T15:52:09.738Z,15.67
2018-09-14T15:54:37.495Z,22.87
2018-09-14T15:57:05.311Z,15.93
2018-09-14T15:59:33.017Z,17.35
2018-09-14T16:02:00.735Z,14.57
2018-09-14T16:04:28.519Z,16.00
2018-09-14T16:06:56.175Z,12.70
2018-09-14T16:09:23.934Z,21.02
2018-09-14T16:11:51.903Z,17.90
2018-09-14T16:14:19.975Z,15.95
2018-09-14T16:19:14.845Z,13.93
2018-09-14T16:21:43.563Z,15.77
2018-09-14T16:24:11.173Z,19.87
2018-09-14T16:29:06.771Z,19.07
2018-09-14T16:31:34.598Z,15.00
2018-09-14T16:34:02.388Z,12.90
2018-09-14T16:38:57.291Z,11.63
2018-09-14T16:41:25.064Z,12.00
2018-09-14T16:43:53.192Z,13.07
2018-09-14T16:46:20.742Z,16.50
2018-09-14T16:48:48.503Z,16.27
2018-09-14T16:51:16.409Z,18.23
2018-09-14T16:53:44.471Z,17.20
2018-09-14T16:56:12.290Z,13.90
2018-09-14T16:58:40.019Z,12.00
2018-09-14T17:01:07.879Z,13.80
2018-09-14T17:03:35.571Z,13.47
2018-09-14T17:06:03.050Z,12.10
2018-09-14T17:08:30.919Z,12.30
2018-09-14T17:10:58.850Z,14.90
2018-09-14T17:13:26.551Z,15.87
2018-09-14T17:15:54.291Z,14.10
2018-09-14T17:18:22.003Z,12.33
2018-09-14T17:20:49.867Z,13.03
2018-09-14T17:23:17.582Z,14.33
2018-09-14T17:25:45.293Z,13.48
2018-09-14T17:28:13.069Z,12.43
2018-09-14T17:30:40.767Z,12.20
2018-09-14T17:33:08.519Z,13.03
2018-09-14T17:35:36.101Z,18.10
2018-09-14T17:38:03.820Z,15.07
2018-09-14T17:40:36.233Z,14.50
2018-09-14T17:43:04.063Z,14.03
2018-09-14T17:45:31.823Z,13.45
2018-09-14T17:47:59.575Z,16.30
2018-09-14T17:50:27.235Z,14.77
2018-09-14T17:52:54.754Z,14.23
2018-09-14T17:55:22.462Z,12.78
2018-09-14T17:57:50.335Z,11.22
2018-09-14T18:00:17.911Z,10.43
2018-09-14T18:02:45.622Z,9.77
2018-09-14T18:05:13.413Z,10.27
2018-09-14T18:07:41.013Z,10.80
2018-09-14T18:12:35.974Z,13.77
2018-09-14T18:15:03.906Z,14.18
2018-09-14T18:17:31.826Z,10.67
2018-09-14T18:19:59.584Z,10.15
2018-09-14T18:24:54.387Z,10.15
2018-09-14T18:27:22.050Z,13.17
2018-09-14T18:29:49.668Z,9.95
2018-09-14T18:32:17.559Z,10.17
2018-09-14T18:34:45.531Z,12.83
2018-09-14T18:37:13.213Z,14.50
2018-09-14T18:42:07.949Z,12.67
2018-09-14T18:47:02.709Z,10.27
2018-09-14T18:49:30.495Z,14.27
2018-09-14T18:51:58.718Z,15.37
2018-09-14T18:54:26.567Z,10.73
2018-09-14T18:56:54.299Z,12.07
2018-09-14T18:59:22.014Z,8.80
2018-09-14T19:01:49.802Z,10.40
2018-09-14T19:04:17.527Z,9.87
2018-09-14T19:06:45.038Z,10.58
2018-09-14T19:09:12.819Z,9.45
2018-09-14T19:11:40.554Z,8.67
2018-09-14T19:14:08.423Z,12.47
2018-09-14T19:16:36.212Z,8.90
2018-09-14T19:19:03.981Z,9.50
2018-09-14T19:23:59.003Z,8.53
2018-09-14T19:26:26.755Z,9.18
2018-09-14T19:28:54.646Z,8.43
2018-09-14T19:31:22.319Z,9.60
2018-09-14T19:33:50.031Z,8.93
2018-09-14T19:36:17.678Z,8.67
2018-09-14T19:38:45.566Z,8.60
2018-09-14T19:41:13.083Z,9.00
2018-09-14T19:43:40.878Z,8.83
2018-09-14T19:46:08.568Z,11.27
2018-09-14T19:48:36.306Z,8.60
2018-09-14T19:53:31.023Z,9.07
2018-09-14T19:55:58.834Z,9.37
2018-09-14T19:58:26.567Z,9.55
2018-09-14T20:03:45.739Z,8.43
2018-09-14T20:06:13.588Z,9.70
2018-09-14T20:08:41.354Z,8.57
2018-09-14T20:11:08.994Z,9.45
2018-09-14T20:16:03.963Z,8.93
2018-09-14T20:18:31.797Z,10.58
2018-09-14T20:20:59.427Z,9.40
2018-09-14T20:23:27.011Z,10.60
2018-09-14T20:25:54.815Z,11.30
2018-09-14T20:30:49.974Z,8.90
2018-09-14T20:33:17.635Z,8.50
2018-09-14T20:35:45.363Z,9.50
2018-09-14T20:38:13.010Z,8.57
2018-09-14T20:43:08.017Z,10.90
2018-09-14T20:45:35.847Z,8.98
2018-09-14T20:48:03.563Z,7.37
2018-09-14T20:50:31.291Z,8.15
2018-09-14T20:52:58.928Z,8.10
2018-09-14T20:55:26.691Z,10.43
2018-09-14T20:57:54.471Z,6.83
2018-09-14T21:00:23.895Z,7.62
2018-09-14T21:02:51.830Z,7.90
2018-09-14T21:05:19.378Z,8.20
2018-09-14T21:07:46.971Z,9.57
2018-09-14T21:10:14.667Z,8.57
2018-09-14T21:12:42.514Z,7.83
2018-09-14T21:15:10.447Z,9.47
2018-09-14T21:17:38.011Z,8.00
2018-09-14T21:22:32.879Z,8.50
2018-09-14T21:25:00.570Z,7.30
2018-09-14T21:27:28.383Z,11.53
2018-09-14T21:29:56.447Z,7.70
2018-09-14T21:32:24.414Z,6.40
2018-09-14T21:34:52.054Z,8.03
2018-09-14T21:37:19.839Z,7.23
2018-09-14T21:39:47.561Z,8.33
2018-09-14T21:42:15.417Z,8.17
2018-09-14T21:47:12.880Z,10.72
2018-09-14T21:49:40.574Z,7.87
2018-09-14T21:52:08.043Z,9.65
2018-09-14T21:54:35.723Z,8.75
2018-09-14T21:57:03.598Z,8.57
2018-09-14T21:59:31.535Z,8.73
2018-09-14T22:01:59.458Z,7.83
2018-09-14T22:04:27.338Z,8.53
2018-09-14T22:06:55.052Z,7.70
2018-09-14T22:09:22.751Z,7.93
2018-09-14T22:11:50.511Z,7.50
2018-09-14T22:14:18.340Z,7.45
2018-09-14T22:16:45.947Z,7.63
2018-09-14T22:21:40.807Z,10.97
2018-09-14T22:24:08.575Z,7.67
2018-09-14T22:26:36.390Z,7.50
2018-09-14T22:31:31.055Z,7.67
2018-09-14T22:33:58.827Z,10.27
2018-09-14T22:36:26.743Z,9.48
2018-09-14T22:38:54.719Z,10.30
2018-09-14T22:41:22.507Z,8.23
2018-09-14T22:43:50.177Z,9.53
2018-09-14T22:46:17.907Z,8.55
2018-09-14T22:48:46.870Z,11.17
2018-09-14T22:51:14.702Z,8.20
2018-09-14T22:53:42.493Z,9.57
2018-09-14T22:56:10.462Z,7.60
2018-09-14T22:58:38.571Z,8.73
2018-09-14T23:06:07.006Z,7.70
2018-09-14T23:08:34.602Z,7.90
2018-09-14T23:11:02.422Z,8.30
2018-09-14T23:15:58.798Z,9.90
2018-09-14T23:18:27.046Z,8.63
2018-09-14T23:20:54.711Z,10.00
2018-09-14T23:23:22.729Z,9.07
2018-09-14T23:25:51.206Z,8.73
2018-09-14T23:28:48.291Z,8.10
2018-09-14T23:31:15.878Z,7.60
2018-09-14T23:33:43.574Z,7.67
2018-09-14T23:36:11.390Z,8.43
2018-09-14T23:38:39.194Z,8.23
2018-09-14T23:41:06.766Z,7.65
2018-09-14T23:43:34.479Z,6.90
2018-09-14T23:46:02.217Z,8.17
2018-09-14T23:48:29.878Z,7.40
2018-09-14T23:50:57.567Z,7.70
2018-09-14T23:55:52.492Z,8.05
2018-09-14T23:58:20.007Z,7.63
